createdAt,value
2022-08-17T00:02:26.201Z,9.60
2022-08-17T00:04:55.182Z,10.80
2022-08-17T00:07:22.405Z,10.57
2022-08-17T00:09:51.858Z,9.53
2022-08-17T00:12:43.015Z,10.73
2022-08-17T00:15:11.400Z,10.90
2022-08-17T00:17:38.474Z,9.73
2022-08-17T00:20:06.038Z,11.07
2022-08-17T00:22:36.370Z,10.50
2022-08-17T00:25:13.055Z,10.10
2022-08-17T00:27:40.429Z,10.80
2022-08-17T00:30:09.954Z,10.10
2022-08-17T00:33:15.572Z,11.00
2022-08-17T00:35:34.449Z,10.17
2022-08-17T00:38:00.990Z,11.07
2022-08-17T00:40:27.561Z,11.80
2022-08-17T00:43:20.688Z,10.30
2022-08-17T00:45:47.950Z,10.07
2022-08-17T00:48:29.846Z,10.73
2022-08-17T00:51:34.358Z,10.97
2022-08-17T00:54:12.731Z,11.03
2022-08-17T00:56:46.412Z,11.17
2022-08-17T00:59:17.522Z,11.20
2022-08-17T01:01:44.254Z,11.10
2022-08-17T01:04:12.494Z,11.73
2022-08-17T01:06:41.521Z,10.50
2022-08-17T01:09:09.374Z,10.90
2022-08-17T01:11:37.228Z,10.87
2022-08-17T01:14:03.940Z,10.63
2022-08-17T01:16:32.270Z,10.70
2022-08-17T01:19:01.966Z,10.63
2022-08-17T01:21:50.717Z,11.60
2022-08-17T01:24:17.536Z,12.03
2022-08-17T01:26:45.774Z,11.50
2022-08-17T01:29:13.389Z,11.67
2022-08-17T01:31:45.695Z,11.17
2022-08-17T01:34:14.430Z,12.13
2022-08-17T01:36:44.712Z,11.80
2022-08-17T01:39:43.561Z,11.87
2022-08-17T01:42:29.048Z,11.63
2022-08-17T01:44:58.107Z,11.67
2022-08-17T01:47:24.868Z,11.40
2022-08-17T01:49:51.443Z,11.53
2022-08-17T01:52:18.193Z,11.47
2022-08-17T01:54:47.386Z,11.73
2022-08-17T01:57:14.392Z,11.80
2022-08-17T01:59:41.008Z,12.03
2022-08-17T02:02:07.692Z,12.60
2022-08-17T02:04:35.075Z,11.67
2022-08-17T02:07:01.906Z,11.30
2022-08-17T02:09:30.122Z,12.23
2022-08-17T02:11:59.802Z,11.73
2022-08-17T02:14:46.469Z,11.87
2022-08-17T02:17:13.014Z,12.53
2022-08-17T02:19:40.454Z,12.37
2022-08-17T02:22:07.038Z,12.90
2022-08-17T02:25:00.251Z,13.23
2022-08-17T02:27:24.514Z,12.60
2022-08-17T02:29:51.127Z,12.47
2022-08-17T02:32:20.899Z,13.53
2022-08-17T02:34:55.733Z,13.63
2022-08-17T02:37:22.309Z,12.90
2022-08-17T02:39:49.008Z,13.33
2022-08-17T02:42:15.710Z,14.37
2022-08-17T02:44:42.351Z,13.43
2022-08-17T02:47:10.548Z,14.03
2022-08-17T02:49:37.934Z,14.97
2022-08-17T02:52:07.243Z,14.97
2022-08-17T02:54:39.207Z,13.73
2022-08-17T02:57:07.558Z,14.83
2022-08-17T02:59:34.123Z,15.47
2022-08-17T03:02:03.376Z,14.53
2022-08-17T03:04:30.913Z,15.43
2022-08-17T03:07:01.432Z,14.43
2022-08-17T03:09:27.966Z,14.73
2022-08-17T03:11:55.826Z,15.30
2022-08-17T03:14:26.024Z,15.90
2022-08-17T03:16:53.802Z,15.43
2022-08-17T03:19:20.898Z,15.70
2022-08-17T03:21:47.426Z,16.83
2022-08-17T03:24:22.342Z,15.60
2022-08-17T03:26:55.750Z,16.20
2022-08-17T03:29:22.328Z,15.43
2022-08-17T03:31:49.727Z,15.43
2022-08-17T03:34:17.142Z,16.63
2022-08-17T03:36:44.417Z,15.93
2022-08-17T03:39:11.154Z,17.23
2022-08-17T03:41:38.971Z,17.23
2022-08-17T03:44:05.638Z,17.50
2022-08-17T03:46:50.497Z,17.63
2022-08-17T03:49:35.531Z,16.70
2022-08-17T03:52:20.515Z,17.70
2022-08-17T03:55:05.754Z,17.27
2022-08-17T03:57:32.489Z,16.90
2022-08-17T03:59:59.856Z,17.53
2022-08-17T04:02:31.859Z,17.77
2022-08-17T04:04:59.433Z,17.13
2022-08-17T04:07:28.639Z,17.30
2022-08-17T04:09:55.438Z,17.07
2022-08-17T04:12:23.658Z,16.03
2022-08-17T04:14:52.909Z,16.43
2022-08-17T04:17:27.688Z,17.03
2022-08-17T04:19:55.490Z,17.17
2022-08-17T04:22:32.765Z,18.20
2022-08-17T04:25:17.078Z,17.63
2022-08-17T04:27:46.340Z,16.90
2022-08-17T04:30:13.569Z,18.10
2022-08-17T04:33:06.345Z,17.57
2022-08-17T04:35:49.448Z,17.10
2022-08-17T04:38:21.581Z,17.43
2022-08-17T04:41:11.679Z,17.60
2022-08-17T04:43:39.966Z,17.13
2022-08-17T04:46:12.525Z,18.07
2022-08-17T04:48:48.667Z,17.50
2022-08-17T04:51:22.293Z,18.03
2022-08-17T04:53:54.346Z,18.50
2022-08-17T04:56:23.470Z,17.37
2022-08-17T04:58:51.642Z,17.40
2022-08-17T05:01:23.131Z,18.03
2022-08-17T05:03:56.196Z,17.80
2022-08-17T05:06:23.483Z,16.73
2022-08-17T05:08:50.259Z,18.20
2022-08-17T05:11:17.250Z,17.50
2022-08-17T05:13:44.793Z,16.57
2022-08-17T05:16:11.685Z,17.23
2022-08-17T05:18:39.150Z,17.00
2022-08-17T05:21:06.711Z,16.80
2022-08-17T05:23:43.049Z,16.43
2022-08-17T05:26:25.778Z,18.43
2022-08-17T05:28:58.523Z,17.47
2022-08-17T05:31:26.798Z,16.93
2022-08-17T05:33:53.638Z,17.27
2022-08-17T05:36:41.862Z,16.67
2022-08-17T05:39:07.139Z,17.77
2022-08-17T05:41:33.678Z,16.53
2022-08-17T05:44:00.269Z,17.13
2022-08-17T05:46:39.270Z,18.30
2022-08-17T05:49:08.174Z,17.20
2022-08-17T05:51:56.593Z,16.70
2022-08-17T05:54:51.678Z,16.50
2022-08-17T05:57:47.618Z,17.40
2022-08-17T06:00:36.929Z,17.33
2022-08-17T06:03:11.439Z,16.20
2022-08-17T06:05:59.132Z,16.43
2022-08-17T06:08:44.429Z,16.13
2022-08-17T06:11:22.794Z,15.37
2022-08-17T06:14:09.317Z,16.60
2022-08-17T06:16:42.791Z,16.47
2022-08-17T06:19:24.422Z,15.70
2022-08-17T06:21:54.531Z,15.65
2022-08-17T06:24:24.292Z,16.33
2022-08-17T06:26:52.498Z,15.50
2022-08-17T06:29:41.927Z,15.40
2022-08-17T06:32:12.670Z,15.40
2022-08-17T06:34:40.692Z,15.43
2022-08-17T06:37:10.283Z,14.10
2022-08-17T06:40:07.454Z,14.43
2022-08-17T06:43:12.690Z,14.85
2022-08-17T06:45:49.330Z,14.50
2022-08-17T06:48:26.930Z,14.35
2022-08-17T06:51:00.075Z,13.80
2022-08-17T06:53:43.907Z,13.73
2022-08-17T06:56:13.994Z,13.70
2022-08-17T06:58:43.382Z,13.70
2022-08-17T07:01:14.989Z,13.75
2022-08-17T07:03:54.682Z,13.90
2022-08-17T07:06:24.550Z,12.93
2022-08-17T07:08:57.747Z,13.55
2022-08-17T07:11:45.296Z,12.95
2022-08-17T07:14:35.301Z,13.07
2022-08-17T07:17:12.076Z,13.32
2022-08-17T07:19:41.293Z,12.80
2022-08-17T07:22:21.921Z,13.00
2022-08-17T07:24:57.313Z,13.02
2022-08-17T07:27:33.008Z,12.68
2022-08-17T07:30:19.425Z,13.15
2022-08-17T07:32:57.855Z,12.43
2022-08-17T07:35:41.475Z,12.80
2022-08-17T07:38:27.711Z,13.20
2022-08-17T07:40:57.658Z,13.25
2022-08-17T07:43:31.674Z,12.80
2022-08-17T07:46:29.918Z,13.07
2022-08-17T07:49:03.558Z,12.32
2022-08-17T07:51:32.044Z,12.48
2022-08-17T07:54:13.967Z,12.18
2022-08-17T07:57:10.449Z,11.75
2022-08-17T07:59:41.263Z,12.07
2022-08-17T08:02:30.120Z,12.02
2022-08-17T08:05:06.576Z,11.23
2022-08-17T08:08:00.707Z,11.45
2022-08-17T08:10:38.084Z,11.23
2022-08-17T08:13:12.266Z,11.32
2022-08-17T08:15:54.764Z,11.43
2022-08-17T08:18:55.813Z,11.00
2022-08-17T08:21:59.059Z,11.90
2022-08-17T08:25:03.124Z,10.65
2022-08-17T08:27:29.809Z,10.68
2022-08-17T08:30:08.787Z,11.65
2022-08-17T08:32:38.319Z,10.25
2022-08-17T08:35:13.445Z,11.55
2022-08-17T08:37:58.020Z,11.05
2022-08-17T08:40:42.978Z,10.88
2022-08-17T08:43:12.644Z,11.35
2022-08-17T08:45:48.001Z,10.75
2022-08-17T08:48:55.666Z,11.15
2022-08-17T08:51:42.590Z,11.38
2022-08-17T08:54:26.675Z,11.77
2022-08-17T08:59:58.222Z,11.00
2022-08-17T09:02:46.782Z,10.88
2022-08-17T09:05:26.141Z,11.32
2022-08-17T09:08:05.523Z,11.65
2022-08-17T09:10:45.249Z,11.23
2022-08-17T09:13:14.860Z,10.75
2022-08-17T09:15:46.216Z,10.60
2022-08-17T09:19:00.417Z,11.52
2022-08-17T09:21:18.221Z,10.90
2022-08-17T09:24:12.871Z,10.68
2022-08-17T09:26:59.557Z,10.75
2022-08-17T09:29:35.183Z,10.40
2022-08-17T09:32:15.006Z,10.68
2022-08-17T09:34:53.605Z,9.95
2022-08-17T09:37:30.719Z,10.23
2022-08-17T09:39:57.260Z,10.18
2022-08-17T09:42:29.996Z,9.63
2022-08-17T09:45:09.767Z,8.57
2022-08-17T09:47:45.546Z,8.50
2022-08-17T09:50:17.285Z,8.68
2022-08-17T09:52:43.897Z,8.48
2022-08-17T09:55:10.517Z,8.93
2022-08-17T09:57:42.974Z,8.55
2022-08-17T10:00:19.066Z,8.55
2022-08-17T10:02:57.931Z,8.98
2022-08-17T10:05:56.819Z,8.70
2022-08-17T10:08:43.826Z,9.10
2022-08-17T10:11:51.745Z,8.05
2022-08-17T10:14:37.824Z,8.32
2022-08-17T10:17:24.046Z,8.43
2022-08-17T10:20:02.343Z,8.23
2022-08-17T10:23:13.557Z,8.23
2022-08-17T10:26:14.380Z,8.50
2022-08-17T10:29:28.992Z,8.25
2022-08-17T10:32:04.103Z,7.88
2022-08-17T10:34:49.338Z,8.82
2022-08-17T10:37:34.385Z,8.48
2022-08-17T10:40:03.774Z,8.52
2022-08-17T10:42:56.674Z,8.20
2022-08-17T10:45:29.513Z,7.47
2022-08-17T10:48:06.369Z,8.55
2022-08-17T10:50:48.097Z,8.10
2022-08-17T10:53:32.771Z,8.02
2022-08-17T10:56:14.333Z,8.18
2022-08-17T10:58:59.035Z,7.80
2022-08-17T11:01:43.862Z,8.32
2022-08-17T11:04:21.224Z,7.05
2022-08-17T11:07:23.046Z,7.75
2022-08-17T11:09:52.439Z,6.38
2022-08-17T11:12:47.697Z,6.95
2022-08-17T11:15:23.232Z,7.20
2022-08-17T11:18:01.558Z,7.00
2022-08-17T11:20:57.704Z,6.88
2022-08-17T11:23:45.484Z,7.03
2022-08-17T11:26:26.880Z,7.15
2022-08-17T11:29:01.435Z,6.57
2022-08-17T11:31:38.607Z,6.40
2022-08-17T11:34:21.630Z,6.80
2022-08-17T11:37:17.898Z,7.22
2022-08-17T11:39:55.245Z,7.45
2022-08-17T11:43:00.459Z,6.55
2022-08-17T11:45:31.675Z,7.43
2022-08-17T11:48:43.612Z,7.32
2022-08-17T11:51:33.421Z,6.70
2022-08-17T11:54:34.878Z,6.55
2022-08-17T11:57:26.333Z,6.68
2022-08-17T12:00:06.762Z,7.22
2022-08-17T12:02:38.826Z,6.35
2022-08-17T12:05:14.586Z,6.50
2022-08-17T12:07:43.119Z,5.70
2022-08-17T12:10:12.392Z,6.13
2022-08-17T12:12:44.097Z,5.50
2022-08-17T12:15:21.820Z,5.70
2022-08-17T12:17:54.556Z,5.40
2022-08-17T12:20:33.833Z,5.68
2022-08-17T12:23:40.978Z,5.50
2022-08-17T12:26:22.708Z,5.50
2022-08-17T12:28:57.386Z,5.80
2022-08-17T12:31:48.737Z,5.78
2022-08-17T12:34:40.606Z,5.90
2022-08-17T12:37:15.332Z,5.68
2022-08-17T12:39:52.542Z,5.68
2022-08-17T12:42:34.895Z,6.00
2022-08-17T12:45:01.650Z,6.22
2022-08-17T12:47:32.232Z,6.10
2022-08-17T12:50:28.795Z,6.07
2022-08-17T12:53:02.333Z,5.60
2022-08-17T12:55:38.016Z,5.93
2022-08-17T12:58:13.974Z,6.20
2022-08-17T13:00:48.762Z,6.15
2022-08-17T13:03:22.209Z,5.97
2022-08-17T13:05:57.556Z,6.70
2022-08-17T13:08:31.635Z,6.70
2022-08-17T13:11:02.058Z,7.10
2022-08-17T13:13:35.354Z,6.55
2022-08-17T13:16:12.756Z,7.82
2022-08-17T13:18:44.202Z,7.78
2022-08-17T13:21:19.126Z,7.32
2022-08-17T13:23:56.504Z,7.45
2022-08-17T13:26:29.657Z,7.68
2022-08-17T13:28:56.706Z,7.07
2022-08-17T13:31:37.476Z,6.10
2022-08-17T13:34:33.509Z,6.88
2022-08-17T13:37:26.887Z,6.82
2022-08-17T13:39:56.234Z,6.32
2022-08-17T13:42:48.121Z,6.45
2022-08-17T13:45:36.079Z,6.70
2022-08-17T13:48:34.045Z,6.30
2022-08-17T13:51:00.541Z,6.07
2022-08-17T13:53:35.984Z,5.97
2022-08-17T13:56:37.204Z,6.10
2022-08-17T13:59:01.568Z,6.28
2022-08-17T14:01:42.485Z,6.53
2022-08-17T14:04:15.355Z,6.47
2022-08-17T14:06:53.346Z,6.20
2022-08-17T14:09:27.305Z,6.47
2022-08-17T14:11:57.023Z,6.45
2022-08-17T14:14:27.527Z,6.22
2022-08-17T14:16:54.425Z,6.13
2022-08-17T14:19:24.502Z,6.50
2022-08-17T14:21:52.409Z,6.15
2022-08-17T14:24:24.178Z,6.60
2022-08-17T14:26:55.181Z,6.43
2022-08-17T14:29:23.427Z,6.40
2022-08-17T14:31:53.243Z,6.00
2022-08-17T14:34:21.383Z,6.47
2022-08-17T14:36:48.580Z,6.45
2022-08-17T14:39:16.769Z,5.95
2022-08-17T14:41:43.713Z,6.55
2022-08-17T14:44:13.431Z,6.72
2022-08-17T14:46:42.179Z,6.22
2022-08-17T14:49:12.348Z,6.53
2022-08-17T14:51:43.733Z,6.85
2022-08-17T14:54:33.353Z,7.45
2022-08-17T14:57:23.103Z,6.75
2022-08-17T14:59:55.260Z,6.97
2022-08-17T15:02:29.807Z,7.38
2022-08-17T15:05:05.109Z,6.88
2022-08-17T15:07:31.862Z,7.75
2022-08-17T15:10:01.625Z,7.22
2022-08-17T15:12:32.690Z,7.13
2022-08-17T15:15:01.218Z,7.05
2022-08-17T15:17:44.375Z,6.78
2022-08-17T15:20:18.715Z,7.07
2022-08-17T15:22:49.383Z,6.65
2022-08-17T15:25:16.205Z,7.00
2022-08-17T15:27:42.806Z,6.45
2022-08-17T15:30:10.558Z,6.30
2022-08-17T15:32:40.646Z,6.28
2022-08-17T15:35:11.902Z,6.13
2022-08-17T15:37:40.279Z,5.72
2022-08-17T15:40:08.831Z,6.10
2022-08-17T15:42:35.734Z,6.05
2022-08-17T15:45:09.703Z,6.03
2022-08-17T15:47:37.161Z,5.95
2022-08-17T15:50:06.400Z,6.25
2022-08-17T15:52:38.143Z,6.15
2022-08-17T15:55:06.258Z,5.53
2022-08-17T15:57:33.833Z,5.50
2022-08-17T16:00:00.469Z,5.80
2022-08-17T16:03:45.219Z,5.75
2022-08-17T16:05:24.015Z,5.60
2022-08-17T16:07:52.725Z,5.80
2022-08-17T16:10:19.753Z,5.70
2022-08-17T16:12:47.870Z,5.57
2022-08-17T16:15:14.838Z,5.65
2022-08-17T16:17:44.616Z,5.95
2022-08-17T16:20:20.638Z,6.10
2022-08-17T16:22:50.082Z,6.00
2022-08-17T16:25:38.265Z,5.70
2022-08-17T16:28:10.591Z,6.25
2022-08-17T16:30:38.283Z,5.82
2022-08-17T16:33:05.973Z,5.97
2022-08-17T16:35:33.713Z,6.50
2022-08-17T16:38:00.369Z,6.28
2022-08-17T16:40:29.202Z,5.95
2022-08-17T16:42:57.954Z,6.10
2022-08-17T16:45:36.983Z,6.03
2022-08-17T16:48:04.465Z,6.25
2022-08-17T16:50:32.291Z,6.18
2022-08-17T16:53:07.741Z,6.10
2022-08-17T16:55:37.980Z,6.15
2022-08-17T16:58:06.370Z,6.68
2022-08-17T17:00:33.829Z,6.45
2022-08-17T17:03:19.490Z,6.93
2022-08-17T17:06:07.341Z,6.70
2022-08-17T17:08:58.757Z,7.00
2022-08-17T17:11:33.744Z,6.60
2022-08-17T17:14:04.234Z,6.75
2022-08-17T17:16:57.142Z,6.85
2022-08-17T17:19:45.734Z,6.65
2022-08-17T17:22:19.146Z,6.32
2022-08-17T17:25:10.425Z,6.50
2022-08-17T17:28:01.322Z,6.75
2022-08-17T17:30:43.078Z,6.70
2022-08-17T17:33:32.831Z,6.57
2022-08-17T17:36:07.251Z,6.57
2022-08-17T17:38:49.975Z,6.90
2022-08-17T17:41:26.462Z,6.65
2022-08-17T17:44:02.893Z,6.93
2022-08-17T17:46:40.422Z,6.80
2022-08-17T17:49:08.362Z,6.78
2022-08-17T17:52:07.850Z,6.85
2022-08-17T17:54:44.479Z,6.80
2022-08-17T17:57:49.603Z,6.88
2022-08-17T18:00:45.805Z,7.20
2022-08-17T18:03:43.994Z,7.57
2022-08-17T18:06:45.479Z,7.05
2022-08-17T18:09:12.498Z,7.00
2022-08-17T18:12:19.777Z,6.68
2022-08-17T18:15:21.523Z,7.10
2022-08-17T18:18:31.796Z,7.15
2022-08-17T18:21:05.950Z,7.07
2022-08-17T18:23:33.401Z,7.20
2022-08-17T18:26:01.942Z,7.05
2022-08-17T18:28:39.769Z,6.93
2022-08-17T18:31:11.387Z,7.13
2022-08-17T18:33:41.341Z,7.38
2022-08-17T18:36:09.217Z,7.30
2022-08-17T18:38:38.918Z,7.18
2022-08-17T18:41:27.164Z,7.28
2022-08-17T18:44:04.464Z,7.70
2022-08-17T18:46:37.659Z,7.40
2022-08-17T18:49:24.146Z,7.68
2022-08-17T18:52:09.901Z,7.78
2022-08-17T18:54:37.389Z,7.25
2022-08-17T18:57:05.596Z,7.80
2022-08-17T18:59:32.071Z,7.50
2022-08-17T19:02:38.624Z,7.05
2022-08-17T19:05:11.756Z,7.15
2022-08-17T19:07:42.113Z,7.40
2022-08-17T19:10:46.183Z,7.60
2022-08-17T19:13:24.518Z,8.68
2022-08-17T19:16:12.095Z,8.43
2022-08-17T19:18:44.607Z,8.73
2022-08-17T19:21:25.596Z,8.90
2022-08-17T19:24:01.410Z,8.27
2022-08-17T19:26:54.896Z,8.98
2022-08-17T19:29:32.174Z,8.20
2022-08-17T19:32:01.430Z,7.82
2022-08-17T19:34:34.128Z,8.05
2022-08-17T19:37:12.244Z,8.98
2022-08-17T19:40:41.680Z,8.43
2022-08-17T19:43:06.790Z,8.82
2022-08-17T19:45:33.431Z,8.93
2022-08-17T19:48:11.686Z,8.43
2022-08-17T19:51:03.871Z,8.55
2022-08-17T19:54:04.889Z,8.43
2022-08-17T19:56:57.060Z,8.27
2022-08-17T19:59:36.138Z,8.65
2022-08-17T20:02:40.993Z,8.60
2022-08-17T20:05:23.958Z,8.68
2022-08-17T20:08:11.821Z,8.50
2022-08-17T20:10:59.591Z,8.80
2022-08-17T20:13:49.922Z,9.32
2022-08-17T20:16:19.961Z,8.75
2022-08-17T20:19:07.542Z,8.83
2022-08-17T20:21:34.073Z,8.77
2022-08-17T20:24:28.634Z,9.02
2022-08-17T20:27:12.845Z,8.13
2022-08-17T20:29:59.055Z,8.48
2022-08-17T20:32:33.005Z,8.50
2022-08-17T20:35:20.101Z,8.00
2022-08-17T20:37:58.821Z,8.27
2022-08-17T20:40:27.598Z,8.80
2022-08-17T20:42:54.821Z,8.70
2022-08-17T20:45:21.327Z,8.38
2022-08-17T20:48:18.465Z,8.15
2022-08-17T20:50:45.861Z,8.82
2022-08-17T20:53:32.838Z,7.85
2022-08-17T20:55:59.953Z,8.50
2022-08-17T20:58:30.982Z,8.40
2022-08-17T21:00:58.862Z,8.67
2022-08-17T21:03:47.934Z,8.73
2022-08-17T21:06:18.237Z,8.80
2022-08-17T21:08:57.684Z,8.48
2022-08-17T21:11:59.962Z,8.10
2022-08-17T21:14:36.529Z,8.70
2022-08-17T21:17:33.279Z,8.48
2022-08-17T21:20:11.014Z,8.10
2022-08-17T21:23:03.096Z,8.13
2022-08-17T21:25:41.823Z,8.90
2022-08-17T21:28:14.629Z,9.32
2022-08-17T21:30:41.087Z,8.60
2022-08-17T21:33:24.993Z,8.67
2022-08-17T21:36:16.049Z,9.07
2022-08-17T21:38:57.766Z,8.77
2022-08-17T21:41:45.518Z,8.70
2022-08-17T21:44:19.360Z,8.33
2022-08-17T21:47:13.005Z,8.50
2022-08-17T21:49:39.846Z,9.00
2022-08-17T21:52:15.394Z,9.05
2022-08-17T21:54:49.234Z,8.40
2022-08-17T21:57:21.827Z,8.95
2022-08-17T21:59:54.987Z,9.20
2022-08-17T22:02:25.483Z,9.67
2022-08-17T22:05:15.331Z,9.20
2022-08-17T22:07:51.051Z,9.40
2022-08-17T22:10:30.473Z,9.43
2022-08-17T22:13:17.683Z,9.27
2022-08-17T22:15:48.032Z,9.43
2022-08-17T22:18:26.888Z,9.70
2022-08-17T22:20:56.626Z,9.53
2022-08-17T22:23:46.314Z,9.73
2022-08-17T22:26:16.958Z,10.13
2022-08-17T22:28:49.250Z,9.77
2022-08-17T22:31:21.610Z,10.10
2022-08-17T22:34:07.634Z,9.97
2022-08-17T22:36:38.788Z,9.67
2022-08-17T22:39:10.929Z,10.37
2022-08-17T22:41:41.188Z,9.30
2022-08-17T22:44:14.066Z,9.50
2022-08-17T22:47:12.006Z,9.30
2022-08-17T22:50:00.231Z,9.90
2022-08-17T22:52:36.139Z,9.63
2022-08-17T22:55:32.270Z,9.73
2022-08-17T22:58:20.257Z,10.20
2022-08-17T23:00:50.406Z,10.60
2022-08-17T23:03:28.073Z,10.30
2022-08-17T23:06:09.631Z,10.13
2022-08-17T23:08:54.759Z,10.13
2022-08-17T23:11:36.533Z,10.37
2022-08-17T23:14:14.531Z,10.10
2022-08-17T23:16:44.983Z,10.27
2022-08-17T23:19:13.625Z,10.10
2022-08-17T23:21:40.464Z,10.27
2022-08-17T23:24:08.934Z,10.10
2022-08-17T23:26:39.330Z,10.67
2022-08-17T23:29:06.753Z,9.93
2022-08-17T23:31:34.809Z,9.70
2022-08-17T23:34:03.385Z,9.97
2022-08-17T23:36:31.634Z,9.53
2022-08-17T23:38:58.534Z,10.27
2022-08-17T23:41:35.246Z,10.77
2022-08-17T23:44:02.971Z,10.70
2022-08-17T23:46:29.512Z,10.23
2022-08-17T23:48:56.198Z,10.37
2022-08-17T23:51:34.680Z,9.53
2022-08-17T23:54:11.686Z,9.93
2022-08-17T23:56:46.591Z,10.33
2022-08-17T23:59:15.227Z,11.03
